Time;durP1;ratioP1;P1;durP2;ratioP2;P2;SDS_P1;SDS_P2;PMS_P1;PMS_P2;Temp;Humidity;BMP_temperature;BMP_pressure;BME280_temperature;BME280_humidity;BME280_pressure;Samples;Min_cycle;Max_cycle;Signal;HPM_P1;HPM_P2
2023/05/04 00:01:36;;;;;;;2.10;1.60;;;;;;;9.17;98.06;96763.16;5037692;28;20198;-71
2023/05/04 00:04:03;;;;;;;2.03;1.37;;;;;;;8.98;100.00;96758.09;5037011;28;20205;-71
2023/05/04 00:06:29;;;;;;;1.50;1.23;;;;;;;9.08;100.00;96764.91;5037852;28;20225;-71
2023/05/04 00:08:57;;;;;;;1.53;1.40;;;;;;;9.23;98.45;96758.09;5035437;28;20225;-71
2023/05/04 00:11:24;;;;;;;2.33;1.87;;;;;;;9.12;100.00;96752.28;5037529;28;20205;-71
2023/05/04 00:13:50;;;;;;;1.90;0.90;;;;;;;9.16;100.00;96758.88;5035988;28;20201;-71
2023/05/04 00:16:17;;;;;;;3.53;2.03;;;;;;;9.24;99.02;96751.03;5036733;28;20225;-71
2023/05/04 00:18:43;;;;;;;3.53;1.87;;;;;;;9.11;98.91;96763.78;5035670;28;20197;-70
2023/05/04 00:21:10;;;;;;;2.60;2.17;;;;;;;8.92;98.49;96752.66;5036204;28;20209;-70
2023/05/04 00:23:36;;;;;;;3.23;1.73;;;;;;;8.87;100.00;96750.50;5036514;28;20209;-70
2023/05/04 00:26:04;;;;;;;1.67;1.10;;;;;;;9.03;98.64;96749.78;5036447;28;20225;-70
2023/05/04 00:28:31;;;;;;;2.27;1.60;;;;;;;9.06;98.42;96745.00;5036029;28;20229;-70
2023/05/04 00:30:57;;;;;;;2.27;1.80;;;;;;;8.92;100.00;96739.50;5036186;28;20197;-70
2023/05/04 00:33:24;;;;;;;1.87;1.70;;;;;;;8.57;100.00;96745.66;5035886;28;20208;-70
2023/05/04 00:35:51;;;;;;;6.10;2.07;;;;;;;8.57;100.00;96740.41;5036314;28;20224;-70
2023/05/04 00:38:18;;;;;;;4.37;2.27;;;;;;;8.73;100.00;96739.69;5036297;28;20231;-70
2023/05/04 00:40:44;;;;;;;3.97;1.77;;;;;;;8.82;100.00;96734.38;5036411;28;20197;-70
2023/05/04 00:43:12;;;;;;;1.67;1.50;;;;;;;8.75;97.22;96735.94;5036901;28;20197;-70
2023/05/04 00:45:40;;;;;;;1.83;1.20;;;;;;;8.79;97.67;96729.41;5036440;28;20222;-70
2023/05/04 00:48:06;;;;;;;2.53;2.03;;;;;;;8.64;100.00;96736.22;5036894;28;20197;-70
2023/05/04 00:50:34;;;;;;;2.67;1.77;;;;;;;8.74;100.00;96734.28;5035154;28;20229;-69
2023/05/04 00:53:07;;;;;;;1.87;1.47;;;;;;;8.74;98.03;96733.47;5036505;28;21091;-69
2023/05/04 00:55:37;;;;;;;2.67;1.47;;;;;;;8.67;97.92;96729.81;5036308;28;20717;-69
2023/05/04 00:58:03;;;;;;;4.00;1.80;;;;;;;8.63;98.93;96731.09;5036633;28;20210;-69
2023/05/04 01:00:31;;;;;;;4.03;1.73;;;;;;;8.65;97.31;96726.50;5035495;28;20201;-70
2023/05/04 01:02:58;;;;;;;3.90;2.03;;;;;;;8.56;98.91;96724.81;5037516;28;20201;-69
2023/05/04 01:05:26;;;;;;;4.13;2.07;;;;;;;8.67;99.04;96728.00;5036383;28;20236;-70
2023/05/04 01:07:59;;;;;;;1.87;1.50;;;;;;;8.61;96.01;96723.34;5036232;28;20209;-70
2023/05/04 01:10:29;;;;;;;2.10;1.40;;;;;;;8.58;94.28;96723.69;5036604;28;20227;-69
2023/05/04 01:13:01;;;;;;;1.73;1.53;;;;;;;8.44;97.83;96731.28;5037446;28;20205;-69
2023/05/04 01:15:29;;;;;;;3.60;1.93;;;;;;;8.38;100.00;96731.88;5036272;28;20228;-69
2023/05/04 01:17:57;;;;;;;3.03;1.93;;;;;;;8.44;99.30;96726.03;5036533;28;20201;-69
2023/05/04 01:20:23;;;;;;;2.17;1.73;;;;;;;8.42;96.35;96716.66;5036018;28;20197;-70
2023/05/04 01:22:51;;;;;;;2.57;1.97;;;;;;;8.27;99.01;96718.16;5036058;28;20207;-69
2023/05/04 01:25:18;;;;;;;1.20;1.10;;;;;;;8.12;100.00;96720.47;5035987;28;20220;-69
2023/05/04 01:27:49;;;;;;;2.20;1.73;;;;;;;7.83;100.00;96733.94;5036108;28;20212;-69
2023/05/04 01:30:20;;;;;;;3.40;2.00;;;;;;;7.96;100.00;96719.50;5035721;28;20232;-69
2023/05/04 01:32:47;;;;;;;2.63;1.77;;;;;;;7.99;100.00;96725.28;5035717;28;20208;-69
2023/05/04 01:35:15;;;;;;;4.13;2.57;;;;;;;8.03;100.00;96723.16;5036804;28;20224;-70
2023/05/04 01:37:41;;;;;;;3.13;1.97;;;;;;;7.99;100.00;96721.81;5035057;28;20208;-69
2023/05/04 01:40:11;;;;;;;7.30;1.83;;;;;;;8.18;100.00;96721.69;5035658;28;20213;-69
2023/05/04 01:42:37;;;;;;;3.80;1.33;;;;;;;8.22;100.00;96721.25;5035520;28;20215;-69
2023/05/04 01:45:04;;;;;;;3.10;1.67;;;;;;;8.21;98.84;96722.22;5036034;28;20228;-69
2023/05/04 01:47:30;;;;;;;2.60;1.10;;;;;;;8.08;96.80;96718.28;5034729;28;20205;-69
2023/05/04 01:49:57;;;;;;;2.27;1.73;;;;;;;8.02;97.21;96717.09;5036037;28;20748;-69
2023/05/04 01:52:23;;;;;;;2.10;1.40;;;;;;;8.11;96.51;96718.00;5034782;28;20205;-69
2023/05/04 01:54:50;;;;;;;1.87;1.20;;;;;;;8.05;95.00;96719.41;5036366;28;20201;-69
2023/05/04 01:57:18;;;;;;;4.57;1.97;;;;;;;7.89;95.69;96723.66;5034710;28;20690;-69
2023/05/04 01:59:44;;;;;;;5.30;2.53;;;;;;;7.82;94.67;96717.38;5035976;28;20202;-70
2023/05/04 02:02:11;;;;;;;1.50;1.40;;;;;;;7.77;95.39;96717.00;5035426;28;20201;-70
2023/05/04 02:04:37;;;;;;;3.03;1.60;;;;;;;7.70;95.96;96723.81;5035626;28;20954;-69
2023/05/04 02:07:04;;;;;;;3.50;1.20;;;;;;;7.62;97.94;96720.28;5035248;28;20205;-69
2023/05/04 02:09:30;;;;;;;2.97;1.70;;;;;;;7.55;99.59;96722.66;5036237;28;20239;-69
2023/05/04 02:11:57;;;;;;;3.03;2.17;;;;;;;7.30;100.00;96715.47;5035578;28;20216;-69
2023/05/04 02:14:24;;;;;;;2.70;1.90;;;;;;;7.05;100.00;96704.00;5034838;28;20209;-70
2023/05/04 02:16:51;;;;;;;3.27;1.77;;;;;;;7.02;100.00;96704.31;5035427;28;20221;-70
2023/05/04 02:19:17;;;;;;;3.27;1.70;;;;;;;7.33;100.00;96712.59;5035078;28;20204;-69
2023/05/04 02:21:44;;;;;;;4.17;2.23;;;;;;;7.46;100.00;96709.63;5035154;28;20232;-69
2023/05/04 02:24:11;;;;;;;2.67;2.07;;;;;;;7.60;100.00;96706.47;5035690;28;20201;-69
2023/05/04 02:26:37;;;;;;;3.83;2.40;;;;;;;7.67;100.00;96702.31;5035625;28;20705;-69
2023/05/04 02:29:04;;;;;;;4.20;1.80;;;;;;;7.70;99.48;96709.88;5031532;28;20749;-69
2023/05/04 02:31:32;;;;;;;5.50;3.43;;;;;;;7.73;100.00;96707.78;5035603;28;20300;-69
2023/05/04 02:34:00;;;;;;;5.33;2.20;;;;;;;7.73;100.00;96704.34;5035235;28;20211;-69
2023/05/04 02:36:27;;;;;;;2.27;2.00;;;;;;;7.68;100.00;96709.22;5035174;28;20592;-69
2023/05/04 02:38:54;;;;;;;7.07;2.40;;;;;;;7.76;100.00;96711.91;5034473;28;20220;-70
2023/05/04 02:41:21;;;;;;;4.60;2.57;;;;;;;7.71;100.00;96717.59;5035589;28;20193;-69
2023/05/04 02:43:47;;;;;;;3.27;1.67;;;;;;;7.62;98.56;96715.03;5034936;28;20208;-69
2023/05/04 02:46:14;;;;;;;4.03;1.90;;;;;;;7.63;96.59;96717.50;5035074;28;20231;-69
2023/05/04 02:48:42;;;;;;;3.17;1.90;;;;;;;7.48;97.19;96718.97;5034829;28;21085;-69
2023/05/04 02:51:08;;;;;;;4.07;1.70;;;;;;;7.37;98.31;96721.00;5035627;28;20249;-69
2023/05/04 02:53:34;;;;;;;2.47;1.83;;;;;;;7.45;100.00;96721.88;5034340;28;20236;-70
2023/05/04 02:56:01;;;;;;;2.73;2.03;;;;;;;7.44;98.46;96727.28;5035868;28;20228;-69
2023/05/04 02:58:27;;;;;;;3.90;2.50;;;;;;;7.47;98.44;96729.59;5034690;28;20201;-69
2023/05/04 03:00:55;;;;;;;3.60;2.30;;;;;;;7.53;99.11;96732.47;5035357;28;20197;-69
2023/05/04 03:03:21;;;;;;;1.70;1.20;;;;;;;7.49;97.57;96733.72;5034678;28;20225;-69
2023/05/04 03:05:49;;;;;;;2.87;1.63;;;;;;;7.13;100.00;96735.56;5034864;28;20275;-70
2023/05/04 03:08:16;;;;;;;4.50;1.80;;;;;;;6.96;100.00;96731.94;5035952;28;20204;-69
2023/05/04 03:10:42;;;;;;;1.37;1.07;;;;;;;7.19;100.00;96722.69;5039042;28;20229;-69
2023/05/04 03:13:08;;;;;;;1.27;1.17;;;;;;;7.20;100.00;96723.53;5039396;28;20288;-69
2023/05/04 03:15:35;;;;;;;2.30;1.93;;;;;;;7.30;100.00;96718.09;5038375;28;20228;-70
2023/05/04 03:18:01;;;;;;;3.20;2.23;;;;;;;7.37;99.82;96711.31;5038629;28;20201;-69
2023/05/04 03:20:28;;;;;;;4.27;2.13;;;;;;;7.17;100.00;96718.59;5038963;28;20201;-69
2023/05/04 03:22:56;;;;;;;3.50;2.23;;;;;;;7.36;98.46;96720.16;5040080;28;20204;-69
2023/05/04 03:25:22;;;;;;;2.30;1.33;;;;;;;7.21;98.36;96710.28;5038898;28;20566;-69
2023/05/04 03:27:49;;;;;;;3.10;2.00;;;;;;;7.18;96.36;96709.75;5038084;28;20198;-69
2023/05/04 03:30:15;;;;;;;3.57;1.70;;;;;;;7.21;96.51;96719.97;5038333;28;20312;-69
2023/05/04 03:32:42;;;;;;;1.40;1.03;;;;;;;7.13;93.72;96701.50;5039901;28;20229;-69
2023/05/04 03:35:09;;;;;;;1.13;1.03;;;;;;;7.02;95.71;96705.13;5037578;28;20577;-69
2023/05/04 03:37:35;;;;;;;2.10;1.50;;;;;;;6.90;96.38;96705.47;5038482;28;21524;-69
2023/05/04 03:40:03;;;;;;;2.27;1.77;;;;;;;6.90;97.84;96706.28;5037946;28;20757;-69
2023/05/04 03:42:30;;;;;;;2.77;1.57;;;;;;;6.75;100.00;96709.50;5038420;28;20212;-70
2023/05/04 03:44:56;;;;;;;1.63;1.27;;;;;;;6.93;100.00;96705.19;5037876;28;20225;-69
2023/05/04 03:47:23;;;;;;;4.80;2.57;;;;;;;6.94;100.00;96702.41;5037867;28;20208;-69
2023/05/04 03:49:49;;;;;;;6.23;1.93;;;;;;;6.97;100.00;96706.53;5037580;28;20322;-69
2023/05/04 03:52:16;;;;;;;3.37;1.63;;;;;;;6.88;99.35;96699.53;5038595;28;20209;-69
2023/05/04 03:54:42;;;;;;;4.77;3.00;;;;;;;6.95;100.00;96703.22;5038466;28;20208;-69
2023/05/04 03:57:10;;;;;;;1.67;1.40;;;;;;;7.07;100.00;96707.34;5037977;28;20209;-69
2023/05/04 03:59:37;;;;;;;3.67;2.47;;;;;;;7.12;100.00;96705.09;5037689;28;20201;-69
2023/05/04 04:02:03;;;;;;;3.60;2.43;;;;;;;7.21;100.00;96702.44;5037599;28;20205;-69
2023/05/04 04:04:29;;;;;;;4.83;2.77;;;;;;;7.15;100.00;96708.25;5038676;28;20725;-69
2023/05/04 04:06:56;;;;;;;3.60;2.27;;;;;;;7.17;100.00;96703.69;5037325;28;20225;-70
2023/05/04 04:09:22;;;;;;;7.37;3.43;;;;;;;7.12;100.00;96694.63;5037544;28;20201;-69
2023/05/04 04:11:49;;;;;;;3.60;2.20;;;;;;;7.18;100.00;96701.88;5037996;28;20205;-69
2023/05/04 04:14:17;;;;;;;3.23;2.60;;;;;;;7.37;100.00;96694.78;5038409;28;20210;-69
2023/05/04 04:16:43;;;;;;;3.97;1.60;;;;;;;7.29;100.00;96698.13;5037171;28;20224;-69
2023/05/04 04:19:09;;;;;;;3.93;2.13;;;;;;;7.26;100.00;96708.88;5037607;28;20201;-69
2023/05/04 04:21:36;;;;;;;3.80;2.63;;;;;;;7.26;100.00;96702.00;5037081;28;20225;-69
2023/05/04 04:24:02;;;;;;;2.43;2.20;;;;;;;7.29;99.65;96698.13;5037808;28;20679;-69
2023/05/04 04:26:29;;;;;;;1.97;1.87;;;;;;;7.24;99.47;96699.50;5037557;28;20591;-69
2023/05/04 04:28:55;;;;;;;4.77;2.83;;;;;;;7.32;99.69;96697.00;5036635;28;20300;-69
2023/05/04 04:31:23;;;;;;;3.00;2.17;;;;;;;7.38;100.00;96707.72;5036559;28;20201;-69
2023/05/04 04:33:51;;;;;;;3.97;2.07;;;;;;;7.32;100.00;96713.53;5038951;28;20205;-70
2023/05/04 04:36:18;;;;;;;3.57;1.83;;;;;;;7.37;100.00;96713.94;5038200;28;20227;-69
2023/05/04 04:38:45;;;;;;;2.40;1.90;;;;;;;7.48;100.00;96711.09;5036893;28;20217;-69
2023/05/04 04:41:11;;;;;;;5.63;2.67;;;;;;;7.63;100.00;96717.50;5036763;28;20886;-69
2023/05/04 04:43:38;;;;;;;3.33;2.20;;;;;;;7.53;100.00;96713.28;5037796;28;20548;-69
2023/05/04 04:46:05;;;;;;;3.80;2.27;;;;;;;7.57;100.00;96707.59;5036716;28;20727;-70
2023/05/04 04:48:32;;;;;;;3.93;2.17;;;;;;;7.85;100.00;96711.81;5036221;28;20213;-70
2023/05/04 04:50:59;;;;;;;6.77;2.30;;;;;;;7.85;100.00;96711.00;5037782;28;20197;-70
2023/05/04 04:53:25;;;;;;;4.70;2.50;;;;;;;7.94;100.00;96703.06;5037006;28;20201;-69
2023/05/04 04:55:52;;;;;;;5.53;3.33;;;;;;;8.06;100.00;96707.13;5037053;28;20224;-70
2023/05/04 04:58:19;;;;;;;7.40;2.93;;;;;;;8.14;100.00;96715.09;5035839;28;20201;-69
2023/05/04 05:00:46;;;;;;;8.27;3.10;;;;;;;8.27;100.00;96708.47;5037093;28;20721;-69
2023/05/04 05:03:12;;;;;;;5.73;2.47;;;;;;;8.36;100.00;96707.56;5036504;28;20243;-69
2023/05/04 05:05:40;;;;;;;7.33;2.33;;;;;;;8.44;100.00;96705.03;5037454;28;20354;-70
2023/05/04 05:08:07;;;;;;;1.93;1.60;;;;;;;8.51;100.00;96706.06;5035327;28;20212;-69
2023/05/04 05:10:33;;;;;;;3.57;2.50;;;;;;;8.40;100.00;96713.34;5036949;28;20201;-69
2023/05/04 05:13:00;;;;;;;2.80;2.27;;;;;;;8.48;100.00;96711.63;5036743;28;20209;-69
2023/05/04 05:15:26;;;;;;;3.93;2.67;;;;;;;8.56;100.00;96704.59;5036930;28;20220;-69
2023/05/04 05:17:52;;;;;;;3.33;2.40;;;;;;;8.60;100.00;96707.75;5035922;28;20204;-69
2023/05/04 05:20:20;;;;;;;4.23;2.77;;;;;;;8.65;100.00;96708.94;5036565;28;20280;-70
2023/05/04 05:22:47;;;;;;;5.63;2.63;;;;;;;8.85;100.00;96720.09;5036453;28;20208;-69
2023/05/04 05:25:14;;;;;;;4.97;2.70;;;;;;;8.78;100.00;96713.78;5036950;28;20228;-69
2023/05/04 05:27:40;;;;;;;9.20;3.33;;;;;;;8.85;100.00;96715.66;5036404;28;20214;-69
2023/05/04 05:30:08;;;;;;;7.43;4.13;;;;;;;8.80;100.00;96717.09;5036215;28;20198;-69
2023/05/04 05:32:34;;;;;;;10.80;3.63;;;;;;;8.94;100.00;96719.16;5035212;28;20208;-70
2023/05/04 05:35:01;;;;;;;3.27;2.10;;;;;;;9.14;100.00;96718.78;5036661;28;20278;-69
2023/05/04 05:37:27;;;;;;;6.00;3.63;;;;;;;9.25;100.00;96723.75;5035347;28;20954;-69
2023/05/04 05:39:55;;;;;;;4.43;2.30;;;;;;;9.30;100.00;96718.84;5036586;28;20209;-69
2023/05/04 05:42:22;;;;;;;5.03;3.10;;;;;;;9.39;100.00;96716.09;5036330;28;21020;-69
2023/05/04 05:44:48;;;;;;;4.73;2.50;;;;;;;9.41;100.00;96718.59;5036134;28;20259;-69
2023/05/04 05:47:15;;;;;;;11.27;3.63;;;;;;;9.55;100.00;96716.16;5035988;28;20205;-70
2023/05/04 05:49:41;;;;;;;5.43;3.13;;;;;;;9.76;100.00;96713.91;5035529;28;20239;-69
2023/05/04 05:52:08;;;;;;;4.23;2.70;;;;;;;9.81;100.00;96711.63;5036023;28;20668;-69
2023/05/04 05:54:34;;;;;;;5.80;3.40;;;;;;;9.98;100.00;96708.06;5034974;28;20205;-69
2023/05/04 05:57:02;;;;;;;9.20;3.67;;;;;;;10.12;100.00;96708.28;5036830;28;20208;-70
2023/05/04 05:59:28;;;;;;;6.63;3.33;;;;;;;10.12;100.00;96715.34;5035064;28;20208;-69
2023/05/04 06:01:55;;;;;;;7.00;4.23;;;;;;;10.17;100.00;96705.13;5036170;28;20224;-69
2023/05/04 06:04:21;;;;;;;6.47;3.47;;;;;;;10.25;100.00;96705.19;5035688;28;20216;-69
2023/05/04 06:06:48;;;;;;;6.37;4.13;;;;;;;10.29;100.00;96709.13;5036911;28;20217;-68
2023/05/04 06:09:14;;;;;;;5.40;3.70;;;;;;;10.45;100.00;96692.31;5034627;28;20205;-69
2023/05/04 06:11:41;;;;;;;12.33;3.80;;;;;;;10.55;100.00;96703.53;5035803;28;20204;-69
2023/05/04 06:14:08;;;;;;;9.00;3.73;;;;;;;10.70;100.00;96695.75;5035159;28;20205;-70
2023/05/04 06:16:35;;;;;;;6.10;3.47;;;;;;;10.75;100.00;96698.72;5035131;28;20233;-70
2023/05/04 06:19:02;;;;;;;6.90;3.40;;;;;;;10.83;100.00;96701.34;5035549;28;20320;-70
2023/05/04 06:21:28;;;;;;;8.17;3.73;;;;;;;10.79;100.00;96700.84;5034855;28;20749;-68
2023/05/04 06:23:54;;;;;;;14.93;3.87;;;;;;;10.77;100.00;96696.72;5035459;28;20201;-68
2023/05/04 06:26:21;;;;;;;7.53;3.53;;;;;;;10.84;100.00;96697.72;5035003;28;21155;-70
2023/05/04 06:28:48;;;;;;;5.43;2.73;;;;;;;10.77;100.00;96697.56;5035506;28;20201;-70
2023/05/04 06:31:15;;;;;;;8.23;4.23;;;;;;;10.98;100.00;96701.31;5035055;28;20307;-70
2023/05/04 06:33:42;;;;;;;7.10;3.17;;;;;;;11.08;100.00;96696.66;5036009;28;20201;-69
2023/05/04 06:36:09;;;;;;;5.23;3.37;;;;;;;11.12;100.00;96694.53;5035857;28;20251;-70
2023/05/04 06:38:35;;;;;;;7.33;3.33;;;;;;;11.28;100.00;96695.28;5035382;28;20239;-70
2023/05/04 06:41:01;;;;;;;6.33;3.17;;;;;;;11.40;100.00;96688.66;5034358;28;20225;-69
2023/05/04 06:43:28;;;;;;;5.33;3.73;;;;;;;11.44;100.00;96689.94;5035190;28;20201;-68
2023/05/04 06:45:55;;;;;;;8.37;4.00;;;;;;;11.45;100.00;96688.16;5035311;28;20224;-69
2023/05/04 06:48:22;;;;;;;9.00;3.13;;;;;;;11.65;100.00;96695.50;5034305;28;20201;-70
2023/05/04 06:50:49;;;;;;;13.30;4.43;;;;;;;11.67;100.00;96688.22;5034560;28;20201;-70
2023/05/04 06:53:15;;;;;;;8.30;3.57;;;;;;;11.70;100.00;96687.91;5035616;28;20205;-69
2023/05/04 06:55:42;;;;;;;10.73;4.37;;;;;;;11.81;100.00;96684.84;5035059;28;20225;-70
2023/05/04 06:58:08;;;;;;;4.90;2.93;;;;;;;11.93;100.00;96688.75;5035060;28;20209;-70
2023/05/04 07:00:36;;;;;;;8.47;3.47;;;;;;;12.20;100.00;96673.22;5034876;28;20205;-70
2023/05/04 07:03:02;;;;;;;7.73;4.33;;;;;;;12.37;100.00;96691.41;5035024;28;20308;-70
2023/05/04 07:05:30;;;;;;;8.90;3.93;;;;;;;12.47;100.00;96673.47;5034658;28;20220;-69
2023/05/04 07:07:57;;;;;;;11.33;5.30;;;;;;;12.67;100.00;96679.94;5034303;28;20208;-69
2023/05/04 07:10:24;;;;;;;7.27;4.17;;;;;;;12.80;100.00;96674.84;5035274;28;20262;-70
2023/05/04 07:12:50;;;;;;;6.32;3.70;;;;;;;12.89;100.00;96679.91;5034756;28;20200;-70
2023/05/04 07:15:17;;;;;;;8.67;3.90;;;;;;;13.08;100.00;96679.38;5035122;28;20343;-70
2023/05/04 07:17:43;;;;;;;5.67;3.23;;;;;;;13.17;100.00;96680.94;5033723;28;20197;-70
2023/05/04 07:20:11;;;;;;;7.78;4.43;;;;;;;13.32;100.00;96678.31;5035005;28;20205;-70
2023/05/04 07:22:39;;;;;;;6.63;3.72;;;;;;;13.47;100.00;96674.63;5033567;28;20265;-70
2023/05/04 07:25:06;;;;;;;8.35;4.05;;;;;;;13.39;97.82;96672.91;5035044;28;20240;-70
2023/05/04 07:27:33;;;;;;;8.63;3.47;;;;;;;13.52;99.65;96670.41;5033461;28;20586;-70
2023/05/04 07:30:01;;;;;;;7.47;4.25;;;;;;;13.70;95.53;96670.84;5035175;28;20201;-70
2023/05/04 07:32:27;;;;;;;9.68;3.95;;;;;;;13.75;96.19;96671.13;5034424;28;20628;-70
2023/05/04 07:34:53;;;;;;;9.77;3.88;;;;;;;13.83;94.11;96670.19;5035114;28;20675;-70
2023/05/04 07:37:20;;;;;;;9.50;2.78;;;;;;;14.11;94.88;96664.00;5033813;28;20662;-69
2023/05/04 07:39:48;;;;;;;7.07;4.22;;;;;;;14.05;92.93;96665.56;5035167;28;20209;-70
2023/05/04 07:42:14;;;;;;;9.30;3.75;;;;;;;14.26;93.59;96664.78;5034170;28;20256;-70
2023/05/04 07:44:41;;;;;;;7.18;3.83;;;;;;;14.47;91.41;96664.78;5034890;28;20838;-70
2023/05/04 07:47:08;;;;;;;9.63;3.92;;;;;;;14.51;92.20;96655.44;5035196;28;20202;-70
2023/05/04 07:49:34;;;;;;;4.90;3.45;;;;;;;14.63;90.22;96653.91;5034734;28;20201;-70
2023/05/04 07:52:00;;;;;;;8.15;3.55;;;;;;;14.55;88.33;96651.38;5034634;28;20201;-70
2023/05/04 07:54:27;;;;;;;6.53;3.15;;;;;;;14.86;91.54;96650.81;5034943;28;20205;-70
2023/05/04 07:56:55;;;;;;;6.18;2.95;;;;;;;15.17;92.29;96653.88;5038516;28;21348;-70
2023/05/04 07:59:21;;;;;;;7.68;3.45;;;;;;;15.19;90.49;96657.19;5037028;28;20580;-69
2023/05/04 08:01:48;;;;;;;6.13;3.30;;;;;;;15.31;91.08;96658.28;5038468;28;20784;-70
2023/05/04 08:04:14;;;;;;;10.55;4.13;;;;;;;15.54;86.62;96656.16;5038224;28;20312;-69
2023/05/04 08:06:41;;;;;;;7.82;3.83;;;;;;;15.64;85.85;96662.75;5037634;28;20243;-71
2023/05/04 08:09:07;;;;;;;7.38;3.45;;;;;;;15.70;83.77;96669.13;5036786;28;20847;-71
2023/05/04 08:11:34;;;;;;;5.90;3.40;;;;;;;15.77;82.91;96672.63;5037295;28;20616;-71
2023/05/04 08:14:02;;;;;;;8.50;3.28;;;;;;;15.91;93.58;96657.34;5036929;28;20746;-70
2023/05/04 08:16:29;;;;;;;9.82;4.32;;;;;;;15.57;85.95;96663.75;5037627;28;20225;-70
2023/05/04 08:18:55;;;;;;;8.75;4.15;;;;;;;15.93;87.28;96651.84;5036789;28;20617;-69
2023/05/04 08:21:22;;;;;;;7.93;3.78;;;;;;;16.23;84.23;96653.97;5037357;28;20225;-71
2023/05/04 08:23:49;;;;;;;8.93;4.07;;;;;;;16.27;82.78;96655.22;5036552;28;20676;-69
2023/05/04 08:26:15;;;;;;;4.97;2.97;;;;;;;16.59;86.00;96657.13;5037478;28;20315;-69
2023/05/04 08:28:44;;;;;;;5.22;2.67;;;;;;;16.62;77.73;96654.88;5037386;28;20205;-69
2023/05/04 08:31:12;;;;;;;7.60;3.42;;;;;;;16.62;77.33;96657.53;5037456;28;20197;-70
2023/05/04 08:33:38;;;;;;;4.55;2.40;;;;;;;16.80;79.66;96654.25;5037404;28;20565;-70
2023/05/04 08:36:07;;;;;;;5.57;3.10;;;;;;;17.23;71.29;96651.78;5037651;28;20228;-70
2023/05/04 08:38:34;;;;;;;5.18;2.85;;;;;;;17.08;76.50;96655.66;5036217;28;20216;-70
2023/05/04 08:41:02;;;;;;;7.97;3.13;;;;;;;17.23;76.07;96654.44;5036689;28;20205;-71
2023/05/04 08:43:29;;;;;;;5.15;2.80;;;;;;;17.14;75.18;96650.34;5036666;28;20201;-70
2023/05/04 08:45:55;;;;;;;4.63;2.70;;;;;;;17.07;71.83;96654.06;5036371;28;20712;-69
2023/05/04 08:48:23;;;;;;;4.40;2.42;;;;;;;17.18;70.30;96656.06;5036804;28;20201;-70
2023/05/04 08:50:50;;;;;;;6.20;3.25;;;;;;;17.33;68.53;96660.16;5037096;28;20201;-69
2023/05/04 08:53:18;;;;;;;5.20;2.85;;;;;;;17.43;68.33;96655.22;5036678;28;20202;-70
2023/05/04 08:55:48;;;;;;;3.80;2.17;;;;;;;17.84;71.27;96647.72;5037150;28;20225;-69
2023/05/04 08:58:16;;;;;;;4.75;2.67;;;;;;;18.01;71.03;96651.53;5037835;28;20205;-69
2023/05/04 09:00:43;;;;;;;5.13;2.90;;;;;;;17.95;66.15;96653.19;5036813;28;20232;-69
2023/05/04 09:03:11;;;;;;;5.22;2.45;;;;;;;17.91;64.08;96651.19;5037008;28;20233;-69
2023/05/04 09:05:41;;;;;;;3.95;2.10;;;;;;;18.21;60.30;96646.94;5036405;28;20340;-70
2023/05/04 09:08:08;;;;;;;6.38;2.45;;;;;;;18.35;61.33;96652.81;5036197;28;20193;-70
2023/05/04 09:10:35;;;;;;;4.80;2.97;;;;;;;18.19;62.75;96646.31;5036083;28;20205;-70
2023/05/04 09:13:02;;;;;;;5.90;2.30;;;;;;;18.10;62.82;96647.56;5036845;28;20209;-70
2023/05/04 09:15:28;;;;;;;6.85;2.38;;;;;;;18.28;62.89;96645.88;5036464;28;20221;-70
2023/05/04 09:17:57;;;;;;;4.90;2.20;;;;;;;18.39;62.61;96639.84;5036296;28;20275;-70
2023/05/04 09:20:24;;;;;;;5.05;2.78;;;;;;;18.32;62.45;96643.59;5036740;28;20292;-70
2023/05/04 09:23:01;;;;;;;4.57;2.58;;;;;;;18.49;63.21;96646.34;5036573;28;20217;-70
2023/05/04 09:25:28;;;;;;;4.90;2.70;;;;;;;18.37;63.56;96640.06;5036419;28;20315;-70
2023/05/04 09:27:54;;;;;;;5.10;2.58;;;;;;;18.52;61.77;96639.75;5036193;28;20627;-70
2023/05/04 09:30:21;;;;;;;26.25;3.47;;;;;;;18.88;57.07;96635.38;5036695;28;20251;-70
2023/05/04 09:32:48;;;;;;;9.20;2.78;;;;;;;18.87;57.60;96631.06;5035833;28;20208;-70
2023/05/04 09:35:17;;;;;;;4.07;2.53;;;;;;;18.53;59.51;96633.38;5036565;28;21290;-69
2023/05/04 09:37:45;;;;;;;5.78;2.47;;;;;;;18.77;57.36;96628.06;5036092;28;21159;-70
2023/05/04 09:40:14;;;;;;;3.78;2.15;;;;;;;18.78;58.46;96627.03;5035775;28;20765;-70
2023/05/04 09:42:41;;;;;;;3.58;2.38;;;;;;;18.61;60.74;96625.09;5035610;28;20225;-70
2023/05/04 09:45:09;;;;;;;4.72;2.65;;;;;;;18.80;60.81;96622.31;5036906;28;20235;-69
2023/05/04 09:47:37;;;;;;;7.15;2.45;;;;;;;18.71;58.87;96620.94;5035563;28;20735;-69
2023/05/04 09:50:15;;;;;;;4.60;2.33;;;;;;;18.87;59.84;96620.38;5035920;28;20205;-69
2023/05/04 09:52:42;;;;;;;2.40;1.52;;;;;;;19.03;56.04;96626.00;5036287;28;20633;-70
2023/05/04 09:55:13;;;;;;;6.95;2.45;;;;;;;19.26;55.67;96620.06;5036047;28;20323;-69
2023/05/04 09:57:41;;;;;;;5.72;2.95;;;;;;;19.41;57.30;96623.16;5034806;28;20529;-70
2023/05/04 10:00:10;;;;;;;5.15;2.22;;;;;;;19.27;57.99;96617.16;5035710;28;20657;-70
2023/05/04 10:02:37;;;;;;;4.35;2.35;;;;;;;19.27;59.41;96610.97;5035092;28;21108;-70
2023/05/04 10:05:05;;;;;;;4.78;2.65;;;;;;;19.49;56.27;96617.53;5036060;28;20225;-69
2023/05/04 10:07:31;;;;;;;6.97;2.03;;;;;;;19.49;57.68;96613.00;5034230;28;20631;-69
2023/05/04 10:09:58;;;;;;;6.63;2.50;;;;;;;19.70;56.31;96600.00;5036432;28;21058;-70
2023/05/04 10:12:26;;;;;;;4.28;2.13;;;;;;;19.88;55.71;96593.81;5035214;28;20201;-70
2023/05/04 10:14:53;;;;;;;4.22;1.83;;;;;;;19.69;55.67;96593.03;5035761;28;20204;-69
2023/05/04 10:17:31;;;;;;;6.28;2.17;;;;;;;19.82;55.65;96598.19;5033974;28;20205;-69
2023/05/04 10:20:09;;;;;;;3.15;1.77;;;;;;;19.86;53.91;96599.38;5036092;28;20205;-70
2023/05/04 10:22:54;;;;;;;4.10;2.40;;;;;;;20.33;52.72;96590.53;5034953;28;20225;-69
2023/05/04 10:25:44;;;;;;;5.47;2.72;;;;;;;20.38;55.05;96586.13;5035542;28;20227;-70
2023/05/04 10:28:27;;;;;;;4.93;2.72;;;;;;;20.32;52.54;96575.50;5034629;28;20204;-71
2023/05/04 10:30:57;;;;;;;5.25;2.38;;;;;;;20.26;53.73;96581.78;5035260;28;20209;-70
2023/05/04 10:33:24;;;;;;;3.78;2.28;;;;;;;20.59;53.96;96566.81;5034105;28;20288;-70
2023/05/04 10:35:52;;;;;;;5.45;2.13;;;;;;;20.83;50.99;96573.06;5035801;28;20217;-70
2023/05/04 10:38:19;;;;;;;4.63;2.80;;;;;;;20.77;50.30;96579.34;5034007;28;20759;-70
2023/05/04 10:40:47;;;;;;;4.18;2.08;;;;;;;20.86;54.87;96568.88;5035937;28;20236;-71
2023/05/04 10:43:22;;;;;;;3.22;2.03;;;;;;;21.21;48.71;96566.19;5035014;28;20320;-68
2023/05/04 10:45:48;;;;;;;4.00;1.80;;;;;;;21.16;47.77;96558.03;5035264;28;20824;-70
2023/05/04 10:48:15;;;;;;;3.53;2.15;;;;;;;21.17;49.54;96563.16;5034476;28;20208;-70
2023/05/04 10:50:43;;;;;;;2.03;1.42;;;;;;;20.61;47.73;96569.28;5035298;28;20232;-69
2023/05/04 10:53:10;;;;;;;3.08;1.80;;;;;;;20.68;51.36;96564.63;5035490;28;20285;-70
2023/05/04 10:55:41;;;;;;;4.53;2.03;;;;;;;20.91;49.18;96560.13;5035428;28;20245;-69
2023/05/04 10:58:08;;;;;;;4.82;1.98;;;;;;;20.89;49.26;96546.97;5034200;28;20292;-69
2023/05/04 11:00:38;;;;;;;7.85;2.83;;;;;;;20.70;50.71;96546.50;5035324;28;21091;-70
2023/05/04 11:03:06;;;;;;;7.38;2.55;;;;;;;20.93;53.07;96540.09;5034831;28;20650;-69
2023/05/04 11:05:40;;;;;;;5.00;2.72;;;;;;;20.95;52.91;96543.38;5035177;28;20229;-70
2023/05/04 11:08:15;;;;;;;4.53;2.30;;;;;;;21.19;53.17;96542.28;5034677;28;20578;-69
2023/05/04 11:10:42;;;;;;;7.22;2.65;;;;;;;20.96;52.51;96536.97;5034785;28;20551;-71
2023/05/04 11:13:11;;;;;;;5.30;2.70;;;;;;;21.21;50.74;96534.84;5034769;28;20204;-70
2023/05/04 11:15:50;;;;;;;4.80;2.35;;;;;;;21.59;50.10;96529.78;5034903;28;20646;-70
2023/05/04 11:18:26;;;;;;;3.90;2.40;;;;;;;21.66;51.24;96528.56;5034284;28;20200;-70
2023/05/04 11:20:53;;;;;;;3.30;1.67;;;;;;;21.58;45.88;96536.19;5034162;28;20307;-70
2023/05/04 11:23:19;;;;;;;2.08;1.63;;;;;;;21.70;41.57;96540.47;5035289;28;20221;-70
2023/05/04 11:25:46;;;;;;;2.85;1.55;;;;;;;21.60;41.48;96539.44;5035911;28;20217;-70
2023/05/04 11:28:13;;;;;;;2.30;1.40;;;;;;;21.83;41.85;96531.31;5034285;28;20714;-70
2023/05/04 11:30:41;;;;;;;2.30;1.45;;;;;;;21.87;41.61;96524.41;5036845;28;20647;-69
2023/05/04 11:33:12;;;;;;;3.47;1.50;;;;;;;22.49;40.04;96524.22;5038893;28;20746;-70
2023/05/04 11:35:39;;;;;;;3.38;1.67;;;;;;;22.18;46.73;96527.44;5038632;28;20241;-71